sensor_id;sensor_type;location;lat;lon;timestamp;pressure;altitude;pressure_sealevel;temperature;humidity
6216;BME280;3141;49.234;9.326;2023-02-18T00:00:27;100528.38;;;15.22;73.73
6216;BME280;3141;49.234;9.326;2023-02-18T00:01:11;100523.06;;;15.38;73.29
6216;BME280;3141;49.234;9.326;2023-02-18T00:01:54;100525.56;;;15.24;73.60
6216;BME280;3141;49.234;9.326;2023-02-18T00:02:36;100522.91;;;15.32;73.54
6216;BME280;3141;49.234;9.326;2023-02-18T00:03:19;100517.88;;;15.21;73.91
6216;BME280;3141;49.234;9.326;2023-02-18T00:04:01;100520.41;;;15.30;73.41
6216;BME280;3141;49.234;9.326;2023-02-18T00:04:43;100517.75;;;15.38;73.24
6216;BME280;3141;49.234;9.326;2023-02-18T00:05:27;100515.56;;;15.26;73.33
6216;BME280;3141;49.234;9.326;2023-02-18T00:06:21;100526.25;;;15.34;73.21
6216;BME280;3141;49.234;9.326;2023-02-18T00:07:04;100513.41;;;15.13;73.85
6216;BME280;3141;49.234;9.326;2023-02-18T00:07:46;100522.22;;;15.22;73.60
6216;BME280;3141;49.234;9.326;2023-02-18T00:08:28;100517.88;;;15.21;73.77
6216;BME280;3141;49.234;9.326;2023-02-18T00:09:11;100511.56;;;15.22;73.68
6216;BME280;3141;49.234;9.326;2023-02-18T00:09:53;100516.75;;;15.39;73.40
6216;BME280;3141;49.234;9.326;2023-02-18T00:10:36;100515.56;;;15.26;73.38
6216;BME280;3141;49.234;9.326;2023-02-18T00:11:20;100527.38;;;15.31;73.39
6216;BME280;3141;49.234;9.326;2023-02-18T00:12:03;100518.09;;;15.27;73.40
6216;BME280;3141;49.234;9.326;2023-02-18T00:12:45;100523.38;;;15.19;73.48
6216;BME280;3141;49.234;9.326;2023-02-18T00:13:27;100514.22;;;15.14;73.86
6216;BME280;3141;49.234;9.326;2023-02-18T00:14:12;100516.41;;;15.18;73.61
6216;BME280;3141;49.234;9.326;2023-02-18T00:14:55;100521.72;;;15.18;74.01
6216;BME280;3141;49.234;9.326;2023-02-18T00:15:38;100521.06;;;15.24;73.51
6216;BME280;3141;49.234;9.326;2023-02-18T00:16:21;100522.06;;;15.23;73.68
6216;BME280;3141;49.234;9.326;2023-02-18T00:17:03;100519.41;;;15.23;73.61
6216;BME280;3141;49.234;9.326;2023-02-18T00:17:45;100530.91;;;15.32;73.39
6216;BME280;3141;49.234;9.326;2023-02-18T00:18:28;100525.75;;;15.30;73.34
6216;BME280;3141;49.234;9.326;2023-02-18T00:19:16;100534.53;;;15.23;73.65
6216;BME280;3141;49.234;9.326;2023-02-18T00:19:59;100527.06;;;15.34;73.23
6216;BME280;3141;49.234;9.326;2023-02-18T00:20:41;100528.56;;;15.37;73.05
6216;BME280;3141;49.234;9.326;2023-02-18T00:21:24;100525.28;;;15.43;72.89
6216;BME280;3141;49.234;9.326;2023-02-18T00:22:06;100531.06;;;15.30;73.23
6216;BME280;3141;49.234;9.326;2023-02-18T00:22:48;100520.88;;;15.26;73.60
6216;BME280;3141;49.234;9.326;2023-02-18T00:23:31;100523.41;;;15.35;73.47
6216;BME280;3141;49.234;9.326;2023-02-18T00:24:15;100523.75;;;15.32;73.33
6216;BME280;3141;49.234;9.326;2023-02-18T00:24:57;100524.25;;;15.36;73.24
6216;BME280;3141;49.234;9.326;2023-02-18T00:25:40;100522.06;;;15.31;73.48
6216;BME280;3141;49.234;9.326;2023-02-18T00:26:22;100514.56;;;15.19;73.79
6216;BME280;3141;49.234;9.326;2023-02-18T00:27:04;100532.25;;;15.36;73.35
6216;BME280;3141;49.234;9.326;2023-02-18T00:27:47;100526.03;;;15.19;73.82
6216;BME280;3141;49.234;9.326;2023-02-18T00:28:30;100520.38;;;15.14;74.25
6216;BME280;3141;49.234;9.326;2023-02-18T00:29:12;100523.03;;;15.14;74.22
6216;BME280;3141;49.234;9.326;2023-02-18T00:29:55;100517.41;;;15.25;74.00
6216;BME280;3141;49.234;9.326;2023-02-18T00:30:39;100519.41;;;15.15;74.33
6216;BME280;3141;49.234;9.326;2023-02-18T00:31:25;100524.72;;;15.15;74.47
6216;BME280;3141;49.234;9.326;2023-02-18T00:32:08;100531.19;;;15.21;74.39
6216;BME280;3141;49.234;9.326;2023-02-18T00:32:50;100530.53;;;15.11;74.48
6216;BME280;3141;49.234;9.326;2023-02-18T00:33:32;100519.72;;;15.12;74.75
6216;BME280;3141;49.234;9.326;2023-02-18T00:34:15;100520.72;;;15.11;75.24
6216;BME280;3141;49.234;9.326;2023-02-18T00:34:57;100525.06;;;15.20;74.85
6216;BME280;3141;49.234;9.326;2023-02-18T00:35:40;100523.56;;;15.26;74.70
6216;BME280;3141;49.234;9.326;2023-02-18T00:36:22;100532.22;;;15.28;74.50
6216;BME280;3141;49.234;9.326;2023-02-18T00:37:04;100525.41;;;15.25;74.84
6216;BME280;3141;49.234;9.326;2023-02-18T00:37:50;100525.72;;;15.06;75.22
6216;BME280;3141;49.234;9.326;2023-02-18T00:38:32;100529.69;;;15.10;75.62
6216;BME280;3141;49.234;9.326;2023-02-18T00:39:15;100535.69;;;15.04;75.86
6216;BME280;3141;49.234;9.326;2023-02-18T00:39:57;100528.03;;;15.17;75.62
6216;BME280;3141;49.234;9.326;2023-02-18T00:40:40;100524.88;;;15.14;75.83
6216;BME280;3141;49.234;9.326;2023-02-18T00:41:24;100530.91;;;15.24;75.46
6216;BME280;3141;49.234;9.326;2023-02-18T00:42:07;100525.38;;;15.17;75.93
6216;BME280;3141;49.234;9.326;2023-02-18T00:42:49;100542.16;;;15.01;76.56
6216;BME280;3141;49.234;9.326;2023-02-18T00:43:32;100525.03;;;14.96;76.94
6216;BME280;3141;49.234;9.326;2023-02-18T00:44:14;100523.34;;;14.87;77.65
6216;BME280;3141;49.234;9.326;2023-02-18T00:44:56;100518.69;;;14.97;77.42
6216;BME280;3141;49.234;9.326;2023-02-18T00:45:39;100522.03;;;14.99;77.30
6216;BME280;3141;49.234;9.326;2023-02-18T00:46:22;100527.88;;;15.02;77.20
6216;BME280;3141;49.234;9.326;2023-02-18T00:47:05;100521.00;;;14.92;77.69
6216;BME280;3141;49.234;9.326;2023-02-18T00:47:47;100523.34;;;14.87;77.73
6216;BME280;3141;49.234;9.326;2023-02-18T00:48:29;100527.19;;;14.92;77.72
6216;BME280;3141;49.234;9.326;2023-02-18T00:49:11;100521.88;;;15.00;77.35
6216;BME280;3141;49.234;9.326;2023-02-18T00:49:54;100531.31;;;14.95;77.38
6216;BME280;3141;49.234;9.326;2023-02-18T00:50:36;100523.34;;;14.95;77.79
6216;BME280;3141;49.234;9.326;2023-02-18T00:51:19;100527.34;;;15.07;77.20
6216;BME280;3141;49.234;9.326;2023-02-18T00:52:02;100526.00;;;14.95;77.62
6216;BME280;3141;49.234;9.326;2023-02-18T00:52:44;100526.69;;;14.97;78.40
6216;BME280;3141;49.234;9.326;2023-02-18T00:53:27;100521.19;;;14.90;78.69
6216;BME280;3141;49.234;9.326;2023-02-18T00:54:10;100523.03;;;15.06;78.17
6216;BME280;3141;49.234;9.326;2023-02-18T00:54:52;100514.50;;;14.94;78.71
6216;BME280;3141;49.234;9.326;2023-02-18T00:55:39;100509.97;;;14.79;79.20
6216;BME280;3141;49.234;9.326;2023-02-18T00:56:21;100516.38;;;14.94;79.33
6216;BME280;3141;49.234;9.326;2023-02-18T00:57:04;100507.69;;;14.84;79.67
6216;BME280;3141;49.234;9.326;2023-02-18T00:57:46;100509.06;;;14.96;79.66
6216;BME280;3141;49.234;9.326;2023-02-18T00:58:28;100511.03;;;14.94;79.46
6216;BME280;3141;49.234;9.326;2023-02-18T00:59:11;100504.66;;;14.79;79.89
6216;BME280;3141;49.234;9.326;2023-02-18T00:59:53;100504.66;;;14.71;80.33
6216;BME280;3141;49.234;9.326;2023-02-18T01:00:36;100503.34;;;14.75;79.92
6216;BME280;3141;49.234;9.326;2023-02-18T01:01:19;100504.34;;;14.82;79.75
6216;BME280;3141;49.234;9.326;2023-02-18T01:02:01;100510.34;;;14.84;79.60
6216;BME280;3141;49.234;9.326;2023-02-18T01:02:43;100503.47;;;14.65;80.28
6216;BME280;3141;49.234;9.326;2023-02-18T01:03:26;100505.44;;;14.63;80.83
6216;BME280;3141;49.234;9.326;2023-02-18T01:04:08;100505.50;;;14.71;80.69
6216;BME280;3141;49.234;9.326;2023-02-18T01:04:50;100503.16;;;14.76;80.05
6216;BME280;3141;49.234;9.326;2023-02-18T01:05:34;100506.00;;;14.83;80.21
6216;BME280;3141;49.234;9.326;2023-02-18T01:06:16;100511.50;;;14.73;80.52
6216;BME280;3141;49.234;9.326;2023-02-18T01:06:58;100508.31;;;14.70;80.44
6216;BME280;3141;49.234;9.326;2023-02-18T01:07:41;100514.50;;;14.78;80.62
6216;BME280;3141;49.234;9.326;2023-02-18T01:08:23;100512.94;;;14.60;80.72
6216;BME280;3141;49.234;9.326;2023-02-18T01:09:05;100514.31;;;14.72;80.63
6216;BME280;3141;49.234;9.326;2023-02-18T01:09:48;100511.78;;;14.70;80.65
6216;BME280;3141;49.234;9.326;2023-02-18T01:10:31;100499.75;;;14.50;81.21
6216;BME280;3141;49.234;9.326;2023-02-18T01:11:14;100516.25;;;14.62;80.67
6216;BME280;3141;49.234;9.326;2023-02-18T01:11:57;100519.44;;;14.65;80.63
6216;BME280;3141;49.234;9.326;2023-02-18T01:12:39;100509.00;;;14.72;80.24
6216;BME280;3141;49.234;9.326;2023-02-18T01:13:22;100512.34;;;14.82;79.79
6216;BME280;3141;49.234;9.326;2023-02-18T01:14:05;100507.31;;;14.79;79.30
6216;BME280;3141;49.234;9.326;2023-02-18T01:14:47;100514.16;;;14.73;79.42
6216;BME280;3141;49.234;9.326;2023-02-18T01:15:30;100520.97;;;14.76;79.07
6216;BME280;3141;49.234;9.326;2023-02-18T01:16:12;100520.63;;;14.79;79.09
6216;BME280;3141;49.234;9.326;2023-02-18T01:16:54;100516.47;;;14.76;78.96
6216;BME280;3141;49.234;9.326;2023-02-18T01:17:37;100513.63;;;14.70;79.34
6216;BME280;3141;49.234;9.326;2023-02-18T01:18:20;100511.16;;;14.76;79.03
6216;BME280;3141;49.234;9.326;2023-02-18T01:19:02;100516.31;;;14.86;78.46
6216;BME280;3141;49.234;9.326;2023-02-18T01:19:45;100513.03;;;14.84;78.15
6216;BME280;3141;49.234;9.326;2023-02-18T01:20:27;100515.16;;;14.80;78.32
6216;BME280;3141;49.234;9.326;2023-02-18T01:21:09;100529.50;;;14.87;77.69
6216;BME280;3141;49.234;9.326;2023-02-18T01:21:52;100517.34;;;14.85;77.65
6216;BME280;3141;49.234;9.326;2023-02-18T01:22:34;100519.16;;;14.84;77.42
6216;BME280;3141;49.234;9.326;2023-02-18T01:23:17;100514.88;;;15.07;76.65
6216;BME280;3141;49.234;9.326;2023-02-18T01:24:00;100520.38;;;15.06;76.45
6216;BME280;3141;49.234;9.326;2023-02-18T01:24:42;100520.69;;;14.95;76.76
6216;BME280;3141;49.234;9.326;2023-02-18T01:25:24;100516.19;;;14.95;76.50
6216;BME280;3141;49.234;9.326;2023-02-18T01:26:08;100519.38;;;14.99;76.37
6216;BME280;3141;49.234;9.326;2023-02-18T01:26:50;100512.06;;;15.09;76.09
6216;BME280;3141;49.234;9.326;2023-02-18T01:27:33;100514.25;;;15.22;75.54
6216;BME280;3141;49.234;9.326;2023-02-18T01:28:15;100502.91;;;15.28;75.07
6216;BME280;3141;49.234;9.326;2023-02-18T01:28:58;100515.06;;;15.14;75.48
6216;BME280;3141;49.234;9.326;2023-02-18T01:29:40;100508.88;;;15.05;75.72
6216;BME280;3141;49.234;9.326;2023-02-18T01:30:23;100501.38;;;14.93;76.13
6216;BME280;3141;49.234;9.326;2023-02-18T01:31:08;100512.38;;;15.06;75.98
6216;BME280;3141;49.234;9.326;2023-02-18T01:31:51;100496.38;;;14.98;75.91
6216;BME280;3141;49.234;9.326;2023-02-18T01:32:33;100502.06;;;15.11;75.68
6216;BME280;3141;49.234;9.326;2023-02-18T01:33:15;100492.06;;;14.97;76.22
6216;BME280;3141;49.234;9.326;2023-02-18T01:33:58;100498.75;;;15.09;75.55
6216;BME280;3141;49.234;9.326;2023-02-18T01:34:40;100502.06;;;15.11;75.57
6216;BME280;3141;49.234;9.326;2023-02-18T01:35:23;100493.06;;;15.12;75.35
6216;BME280;3141;49.234;9.326;2023-02-18T01:36:06;100498.94;;;15.24;75.10
6216;BME280;3141;49.234;9.326;2023-02-18T01:36:48;100495.09;;;15.26;74.91
6216;BME280;3141;49.234;9.326;2023-02-18T01:37:31;100485.75;;;15.14;74.86
6216;BME280;3141;49.234;9.326;2023-02-18T01:38:13;100494.44;;;15.08;75.44
6216;BME280;3141;49.234;9.326;2023-02-18T01:38:55;100501.41;;;15.09;75.43
6216;BME280;3141;49.234;9.326;2023-02-18T01:39:38;100498.91;;;15.16;75.21
6216;BME280;3141;49.234;9.326;2023-02-18T01:40:24;100498.56;;;15.11;75.19
6216;BME280;3141;49.234;9.326;2023-02-18T01:41:07;100494.94;;;15.20;75.00
6216;BME280;3141;49.234;9.326;2023-02-18T01:41:50;100501.09;;;15.20;74.76
6216;BME280;3141;49.234;9.326;2023-02-18T01:42:33;100498.91;;;15.07;75.19
6216;BME280;3141;49.234;9.326;2023-02-18T01:43:16;100496.25;;;15.16;74.78
6216;BME280;3141;49.234;9.326;2023-02-18T01:44:16;100504.06;;;15.01;75.42
6216;BME280;3141;49.234;9.326;2023-02-18T01:46:17;100494.56;;;14.90;76.02
6216;BME280;3141;49.234;9.326;2023-02-18T01:47:01;100500.38;;;15.02;75.78
6216;BME280;3141;49.234;9.326;2023-02-18T01:47:43;100514.50;;;14.94;75.86
6216;BME280;3141;49.234;9.326;2023-02-18T01:48:56;100504.41;;;15.14;75.32
6216;BME280;3141;49.234;9.326;2023-02-18T01:49:40;100501.91;;;15.04;75.30
6216;BME280;3141;49.234;9.326;2023-02-18T01:50:22;100502.75;;;15.13;75.19
6216;BME280;3141;49.234;9.326;2023-02-18T01:51:15;100498.75;;;15.09;75.49
6216;BME280;3141;49.234;9.326;2023-02-18T01:52:02;100506.38;;;14.96;75.77
6216;BME280;3141;49.234;9.326;2023-02-18T01:52:46;100504.06;;;15.01;75.71
6216;BME280;3141;49.234;9.326;2023-02-18T01:53:55;100507.72;;;15.00;75.89
6216;BME280;3141;49.234;9.326;2023-02-18T01:54:43;100509.72;;;15.06;75.66
6216;BME280;3141;49.234;9.326;2023-02-18T01:55:27;100510.75;;;15.21;75.12
6216;BME280;3141;49.234;9.326;2023-02-18T01:56:13;100513.56;;;15.20;75.08
6216;BME280;3141;49.234;9.326;2023-02-18T01:57:03;100501.41;;;15.09;75.43
6216;BME280;3141;49.234;9.326;2023-02-18T01:57:46;100498.75;;;15.01;75.56
6216;BME280;3141;49.234;9.326;2023-02-18T01:58:28;100504.88;;;15.01;75.73
6216;BME280;3141;49.234;9.326;2023-02-18T01:59:20;100501.38;;;14.93;75.93
6216;BME280;3141;49.234;9.326;2023-02-18T02:00:10;100496.03;;;14.93;76.08
6216;BME280;3141;49.234;9.326;2023-02-18T02:00:53;100494.06;;;14.95;76.61
6216;BME280;3141;49.234;9.326;2023-02-18T02:01:35;100495.06;;;15.02;76.00
6216;BME280;3141;49.234;9.326;2023-02-18T02:02:20;100497.38;;;14.97;76.17
6216;BME280;3141;49.234;9.326;2023-02-18T02:03:03;100499.88;;;14.98;76.08
6216;BME280;3141;49.234;9.326;2023-02-18T02:03:45;100491.25;;;15.04;75.73
6216;BME280;3141;49.234;9.326;2023-02-18T02:04:28;100494.22;;;15.01;75.71
6216;BME280;3141;49.234;9.326;2023-02-18T02:05:11;100494.72;;;15.05;75.64
6216;BME280;3141;49.234;9.326;2023-02-18T02:05:53;100492.69;;;14.91;75.82
6216;BME280;3141;49.234;9.326;2023-02-18T02:06:36;100489.41;;;14.89;76.02
6216;BME280;3141;49.234;9.326;2023-02-18T02:07:20;100489.75;;;15.02;75.75
6216;BME280;3141;49.234;9.326;2023-02-18T02:08:03;100489.91;;;15.00;75.59
6216;BME280;3141;49.234;9.326;2023-02-18T02:08:48;100486.91;;;15.03;75.42
6216;BME280;3141;49.234;9.326;2023-02-18T02:09:33;100484.59;;;15.08;75.21
6216;BME280;3141;49.234;9.326;2023-02-18T02:10:15;100487.91;;;15.19;74.63
6216;BME280;3141;49.234;9.326;2023-02-18T02:11:08;100480.13;;;15.25;74.37
6216;BME280;3141;49.234;9.326;2023-02-18T02:12:55;100483.59;;;15.26;74.12
6216;BME280;3141;49.234;9.326;2023-02-18T02:16:02;100486.25;;;15.10;74.54
6216;BME280;3141;49.234;9.326;2023-02-18T02:17:03;100479.13;;;15.18;74.31
6216;BME280;3141;49.234;9.326;2023-02-18T02:19:19;100474.44;;;15.12;74.53
6216;BME280;3141;49.234;9.326;2023-02-18T02:21:31;100468.94;;;15.14;74.09
6216;BME280;3141;49.234;9.326;2023-02-18T02:23:48;100475.28;;;15.04;74.06
6216;BME280;3141;49.234;9.326;2023-02-18T02:27:00;100460.81;;;15.23;73.50
6216;BME280;3141;49.234;9.326;2023-02-18T02:29:11;100456.81;;;15.27;73.05
6216;BME280;3141;49.234;9.326;2023-02-18T02:33:12;100454.47;;;15.16;73.33
6216;BME280;3141;49.234;9.326;2023-02-18T02:35:06;100464.13;;;15.33;72.57
6216;BME280;3141;49.234;9.326;2023-02-18T02:36:54;100466.78;;;15.09;73.28
6216;BME280;3141;49.234;9.326;2023-02-18T02:37:58;100455.47;;;15.15;73.12
6216;BME280;3141;49.234;9.326;2023-02-18T02:38:52;100458.81;;;15.25;72.96
6216;BME280;3141;49.234;9.326;2023-02-18T02:39:54;100459.63;;;15.26;72.48
6216;BME280;3141;49.234;9.326;2023-02-18T02:40:51;100456.16;;;15.25;72.48
6216;BME280;3141;49.234;9.326;2023-02-18T02:41:45;100459.47;;;15.19;72.58
6216;BME280;3141;49.234;9.326;2023-02-18T02:43:33;100451.63;;;15.18;72.51
6216;BME280;3141;49.234;9.326;2023-02-18T02:44:28;100453.13;;;15.28;72.44
6216;BME280;3141;49.234;9.326;2023-02-18T02:46:00;100456.47;;;15.30;72.21
6216;BME280;3141;49.234;9.326;2023-02-18T02:46:46;100454.78;;;15.29;72.25
6216;BME280;3141;49.234;9.326;2023-02-18T02:47:37;100456.47;;;15.30;71.92
6216;BME280;3141;49.234;9.326;2023-02-18T02:49:34;100457.63;;;15.28;72.17
6216;BME280;3141;49.234;9.326;2023-02-18T02:50:41;100458.44;;;15.12;72.78
6216;BME280;3141;49.234;9.326;2023-02-18T02:51:30;100451.78;;;15.24;72.64
6216;BME280;3141;49.234;9.326;2023-02-18T02:52:16;100452.44;;;15.10;73.10
6216;BME280;3141;49.234;9.326;2023-02-18T02:53:05;100456.31;;;15.24;72.44
6216;BME280;3141;49.234;9.326;2023-02-18T02:53:52;100454.47;;;15.16;72.66
6216;BME280;3141;49.234;9.326;2023-02-18T02:54:35;100447.47;;;15.31;72.32
6216;BME280;3141;49.234;9.326;2023-02-18T02:55:17;100460.78;;;15.31;72.28
6216;BME280;3141;49.234;9.326;2023-02-18T02:55:59;100446.31;;;15.18;72.85
6216;BME280;3141;49.234;9.326;2023-02-18T02:56:42;100452.47;;;15.02;73.53
6216;BME280;3141;49.234;9.326;2023-02-18T02:58:10;100443.63;;;15.26;73.05
6216;BME280;3141;49.234;9.326;2023-02-18T02:59:07;100445.50;;;15.49;72.07
6216;BME280;3141;49.234;9.326;2023-02-18T02:59:56;100454.81;;;15.53;71.60
6216;BME280;3141;49.234;9.326;2023-02-18T03:03:32;100448.47;;;15.14;74.01
6216;BME280;3141;49.234;9.326;2023-02-18T03:04:30;100445.31;;;15.11;74.66
6216;BME280;3141;49.234;9.326;2023-02-18T03:06:28;100439.78;;;14.88;76.25
6216;BME280;3141;49.234;9.326;2023-02-18T03:09:15;100448.97;;;15.26;74.97
6216;BME280;3141;49.234;9.326;2023-02-18T03:11:15;100438.50;;;15.08;75.60
6216;BME280;3141;49.234;9.326;2023-02-18T03:12:33;100448.47;;;15.06;75.96
6216;BME280;3141;49.234;9.326;2023-02-18T03:14:27;100439.47;;;14.91;76.16
6216;BME280;3141;49.234;9.326;2023-02-18T03:15:16;100437.28;;;14.94;76.03
6216;BME280;3141;49.234;9.326;2023-02-18T03:16:15;100443.47;;;15.03;75.74
6216;BME280;3141;49.234;9.326;2023-02-18T03:17:13;100439.81;;;14.96;75.70
6216;BME280;3141;49.234;9.326;2023-02-18T03:18:15;100435.47;;;15.03;75.44
6216;BME280;3141;49.234;9.326;2023-02-18T03:19:06;100432.81;;;14.95;75.51
6216;BME280;3141;49.234;9.326;2023-02-18T03:19:54;100443.97;;;15.06;75.33
6216;BME280;3141;49.234;9.326;2023-02-18T03:20:44;100442.47;;;14.96;75.12
6216;BME280;3141;49.234;9.326;2023-02-18T03:21:33;100439.16;;;15.02;75.01
6216;BME280;3141;49.234;9.326;2023-02-18T03:22:22;100441.16;;;15.08;74.87
6216;BME280;3141;49.234;9.326;2023-02-18T03:23:10;100449.47;;;14.97;75.10
6216;BME280;3141;49.234;9.326;2023-02-18T03:23:58;100453.13;;;14.96;74.94
6216;BME280;3141;49.234;9.326;2023-02-18T03:24:45;100442.78;;;14.93;75.07
6216;BME280;3141;49.234;9.326;2023-02-18T03:25:29;100451.13;;;14.98;75.00
6216;BME280;3141;49.234;9.326;2023-02-18T03:26:14;100454.44;;;15.00;74.88
6216;BME280;3141;49.234;9.326;2023-02-18T03:27:01;100446.81;;;14.89;75.05
6216;BME280;3141;49.234;9.326;2023-02-18T03:27:51;100453.47;;;15.01;74.75
6216;BME280;3141;49.234;9.326;2023-02-18T03:28:35;100451.13;;;14.82;75.40
6216;BME280;3141;49.234;9.326;2023-02-18T03:29:20;100445.78;;;14.98;75.02
6216;BME280;3141;49.234;9.326;2023-02-18T03:30:32;100456.31;;;15.07;74.72
6216;BME280;3141;49.234;9.326;2023-02-18T03:31:19;100453.28;;;14.86;75.16
6216;BME280;3141;49.234;9.326;2023-02-18T03:32:05;100459.09;;;14.90;75.14
6216;BME280;3141;49.234;9.326;2023-02-18T03:32:52;100446.47;;;15.00;74.96
6216;BME280;3141;49.234;9.326;2023-02-18T03:33:53;100459.13;;;15.06;74.59
6216;BME280;3141;49.234;9.326;2023-02-18T03:34:40;100447.94;;;14.94;74.93
6216;BME280;3141;49.234;9.326;2023-02-18T03:35:25;100448.63;;;14.96;75.13
6216;BME280;3141;49.234;9.326;2023-02-18T03:36:08;100439.47;;;14.83;75.66
6216;BME280;3141;49.234;9.326;2023-02-18T03:36:52;100443.81;;;14.84;75.91
6216;BME280;3141;49.234;9.326;2023-02-18T03:37:39;100441.97;;;15.00;75.58
6216;BME280;3141;49.234;9.326;2023-02-18T03:38:35;100451.97;;;14.90;75.85
6216;BME280;3141;49.234;9.326;2023-02-18T03:39:22;100442.63;;;14.94;75.43
6216;BME280;3141;49.234;9.326;2023-02-18T03:40:06;100448.78;;;14.87;75.78
6216;BME280;3141;49.234;9.326;2023-02-18T03:40:50;100451.44;;;14.87;75.98
6216;BME280;3141;49.234;9.326;2023-02-18T03:41:33;100443.81;;;14.92;75.53
6216;BME280;3141;49.234;9.326;2023-02-18T03:42:16;100448.63;;;14.88;75.66
6216;BME280;3141;49.234;9.326;2023-02-18T03:43:00;100443.13;;;14.90;75.39
6216;BME280;3141;49.234;9.326;2023-02-18T03:43:59;100437.59;;;14.75;75.89
6216;BME280;3141;49.234;9.326;2023-02-18T03:44:42;100439.28;;;14.84;75.47
6216;BME280;3141;49.234;9.326;2023-02-18T03:45:25;100436.78;;;14.83;75.37
6216;BME280;3141;49.234;9.326;2023-02-18T03:46:07;100439.16;;;14.94;75.16
6216;BME280;3141;49.234;9.326;2023-02-18T03:46:50;100441.81;;;15.10;74.25
6216;BME280;3141;49.234;9.326;2023-02-18T03:47:33;100440.47;;;15.14;74.08
6216;BME280;3141;49.234;9.326;2023-02-18T03:48:16;100435.13;;;14.98;74.22
6216;BME280;3141;49.234;9.326;2023-02-18T03:48:58;100432.81;;;15.03;74.27
6216;BME280;3141;49.234;9.326;2023-02-18T03:49:40;100431.16;;;15.18;73.69
6216;BME280;3141;49.234;9.326;2023-02-18T03:50:23;100431.31;;;15.08;73.82
6216;BME280;3141;49.234;9.326;2023-02-18T03:51:05;100444.81;;;14.99;73.77
6216;BME280;3141;49.234;9.326;2023-02-18T03:51:48;100435.00;;;14.99;73.88
6216;BME280;3141;49.234;9.326;2023-02-18T03:52:30;100431.34;;;14.92;74.03
6216;BME280;3141;49.234;9.326;2023-02-18T03:53:12;100434.13;;;14.91;74.16
6216;BME280;3141;49.234;9.326;2023-02-18T03:53:55;100435.34;;;15.04;74.03
6216;BME280;3141;49.234;9.326;2023-02-18T03:54:38;100426.34;;;15.05;73.91
6216;BME280;3141;49.234;9.326;2023-02-18T03:55:20;100423.66;;;15.05;73.73
6216;BME280;3141;49.234;9.326;2023-02-18T03:56:02;100422.16;;;14.95;74.08
6216;BME280;3141;49.234;9.326;2023-02-18T03:56:45;100420.84;;;15.15;73.57
6216;BME280;3141;49.234;9.326;2023-02-18T03:57:27;100423.66;;;15.05;73.51
6216;BME280;3141;49.234;9.326;2023-02-18T03:58:09;100423.16;;;15.02;73.82
6216;BME280;3141;49.234;9.326;2023-02-18T03:58:52;100419.19;;;15.14;73.38
6216;BME280;3141;49.234;9.326;2023-02-18T03:59:34;100413.69;;;15.07;73.41
6216;BME280;3141;49.234;9.326;2023-02-18T04:00:17;100419.34;;;15.13;73.33
6216;BME280;3141;49.234;9.326;2023-02-18T04:00:59;100414.69;;;15.15;72.98
6216;BME280;3141;49.234;9.326;2023-02-18T04:01:41;100413.69;;;15.16;73.10
6216;BME280;3141;49.234;9.326;2023-02-18T04:02:24;100427.16;;;15.06;73.30
6216;BME280;3141;49.234;9.326;2023-02-18T04:03:06;100424.69;;;15.04;73.52
6216;BME280;3141;49.234;9.326;2023-02-18T04:03:48;100420.00;;;15.06;73.13
6216;BME280;3141;49.234;9.326;2023-02-18T04:04:31;100413.53;;;15.09;73.20
6216;BME280;3141;49.234;9.326;2023-02-18T04:05:13;100416.50;;;15.14;72.86
6216;BME280;3141;49.234;9.326;2023-02-18T04:05:56;100422.50;;;15.16;73.05
6216;BME280;3141;49.234;9.326;2023-02-18T04:06:38;100420.69;;;15.00;73.56
6216;BME280;3141;49.234;9.326;2023-02-18T04:07:20;100415.34;;;15.00;73.42
6216;BME280;3141;49.234;9.326;2023-02-18T04:08:03;100416.53;;;15.06;73.37
6216;BME280;3141;49.234;9.326;2023-02-18T04:08:47;100416.19;;;15.09;73.50
6216;BME280;3141;49.234;9.326;2023-02-18T04:09:29;100411.69;;;15.10;73.22
6216;BME280;3141;49.234;9.326;2023-02-18T04:10:11;100416.50;;;14.98;73.73
6216;BME280;3141;49.234;9.326;2023-02-18T04:10:54;100416.50;;;14.82;74.44
6216;BME280;3141;49.234;9.326;2023-02-18T04:11:37;100427.16;;;15.06;73.89
6216;BME280;3141;49.234;9.326;2023-02-18T04:12:19;100424.81;;;14.95;74.07
6216;BME280;3141;49.234;9.326;2023-02-18T04:13:02;100419.50;;;14.87;74.47
6216;BME280;3141;49.234;9.326;2023-02-18T04:13:44;100420.19;;;14.89;74.82
6216;BME280;3141;49.234;9.326;2023-02-18T04:14:27;100423.50;;;14.99;74.27
6216;BME280;3141;49.234;9.326;2023-02-18T04:15:09;100423.16;;;15.02;74.12
6216;BME280;3141;49.234;9.326;2023-02-18T04:15:51;100433.16;;;14.84;74.53
6216;BME280;3141;49.234;9.326;2023-02-18T04:16:33;100414.50;;;14.92;74.48
6216;BME280;3141;49.234;9.326;2023-02-18T04:17:16;100423.00;;;14.95;74.46
6216;BME280;3141;49.234;9.326;2023-02-18T04:17:58;100429.47;;;14.77;75.07
6216;BME280;3141;49.234;9.326;2023-02-18T04:18:40;100420.69;;;14.92;74.58
6216;BME280;3141;49.234;9.326;2023-02-18T04:19:23;100423.19;;;14.94;74.37
6216;BME280;3141;49.234;9.326;2023-02-18T04:20:06;100429.50;;;15.01;74.21
6216;BME280;3141;49.234;9.326;2023-02-18T04:20:48;100419.84;;;14.92;74.29
6216;BME280;3141;49.234;9.326;2023-02-18T04:21:31;100427.34;;;15.04;74.23
6216;BME280;3141;49.234;9.326;2023-02-18T04:22:14;100423.16;;;15.02;73.96
6216;BME280;3141;49.234;9.326;2023-02-18T04:22:56;100421.16;;;14.80;74.96
6216;BME280;3141;49.234;9.326;2023-02-18T04:23:38;100422.84;;;14.89;74.74
6216;BME280;3141;49.234;9.326;2023-02-18T04:24:21;100426.47;;;14.88;74.75
6216;BME280;3141;49.234;9.326;2023-02-18T04:25:03;100422.81;;;14.81;74.91
6216;BME280;3141;49.234;9.326;2023-02-18T04:25:46;100430.81;;;14.89;74.92
6216;BME280;3141;49.234;9.326;2023-02-18T04:26:28;100421.34;;;15.02;74.50
6216;BME280;3141;49.234;9.326;2023-02-18T04:27:11;100435.31;;;14.96;74.54
6216;BME280;3141;49.234;9.326;2023-02-18T04:27:53;100425.50;;;14.89;74.96
6216;BME280;3141;49.234;9.326;2023-02-18T04:28:35;100421.66;;;14.83;75.54
6216;BME280;3141;49.234;9.326;2023-02-18T04:29:17;100426.81;;;14.85;75.17
6216;BME280;3141;49.234;9.326;2023-02-18T04:30:00;100433.16;;;14.84;75.34
6216;BME280;3141;49.234;9.326;2023-02-18T04:30:43;100424.34;;;14.99;74.90